Terminal Aerodrome Forecast
Issued by NWS

Home | Current Version | Previous Version | Text Only | Print | Product List | Glossary On
Versions: 1 2 3 4 5 6 7 8 9 10 11 12 13
000
FTUS45 KFGZ 270500
TAFPRC
TAF
KPRC 270522Z 2706/2806 19005KT P6SM FEW250
     FM271800 32009KT P6SM FEW250
     FM280200 19007KT P6SM SCT250=

USA.gov is the U.S. government's official web portal to all federal, state and local government web resources and services.